CYHA

Quaqtaq Airport

Quaqtaq, Quebec, Canada
METAR CYHA 181600Z 33012KT 15SM BKN037 01/M02 A3026 RMK SC7 SLP251
Observed Flight Rules
Sep-18 @ 16:00 UTC (2 hours ago) Visual Flight Rules
Wind Visibility Clouds
330° at 12 knots 15 miles
  • Broken at 3,700' AGL
Temperatures Readings
Current 1°C / 34°F
Dewpoint -2°C / 28°F
Humidity 81%
Altimeter 30.26" Hg
Pressure 1025.1 hPa
Elevation 30
METAR CYHA 181600Z 33012KT 15SM BKN037 01/M02 A3026 RMK SC7 SLP251
Observed Flight Rules
Sep-18 @ 16:00 UTC
(2 hours ago)
VFR
Wind Visibility
330° at 12 knots 15 miles
Clouds
  • Broken at 3,700' AGL
Temperature Dewpoint
1°C / 34°F -2°C / 28°F
Humidity Altimeter Pressure
81% 30.26" Hg 1025.1 hPa